createdAt,value
2018-06-10T05:22:29.961Z,17.79
2018-06-10T05:23:37.990Z,17.90
2018-06-10T05:24:46.302Z,17.94
2018-06-10T05:25:54.142Z,17.94
2018-06-10T05:27:02.212Z,18.03
2018-06-10T05:28:10.279Z,18.00
2018-06-10T05:29:18.345Z,18.16
2018-06-10T05:30:26.416Z,18.15
2018-06-10T05:31:34.489Z,18.26
2018-06-10T05:32:42.570Z,18.18
2018-06-10T05:33:50.630Z,18.34
2018-06-10T05:34:58.686Z,18.55
2018-06-10T05:36:06.768Z,18.57
2018-06-10T05:37:14.814Z,18.49
2018-06-10T05:38:22.890Z,18.52
2018-06-10T05:39:30.948Z,18.67
2018-06-10T05:40:39.048Z,18.63
2018-06-10T05:41:47.119Z,18.58
2018-06-10T05:42:55.151Z,18.57
2018-06-10T05:44:03.252Z,18.55
2018-06-10T05:45:11.333Z,18.68
2018-06-10T05:46:19.393Z,18.70
2018-06-10T05:47:27.481Z,18.68
2018-06-10T05:48:35.523Z,18.70
2018-06-10T05:49:43.576Z,18.74
2018-06-10T05:50:51.660Z,18.83
2018-06-10T05:51:59.732Z,18.76
2018-06-10T05:53:07.795Z,18.81
2018-06-10T05:54:15.861Z,18.83
2018-06-10T05:55:23.928Z,18.78
2018-06-10T05:56:31.986Z,18.96
2018-06-10T05:57:40.065Z,18.91
2018-06-10T05:58:48.138Z,19.09
2018-06-10T05:59:56.224Z,19.05
2018-06-10T06:01:04.274Z,19.04
2018-06-10T06:02:12.350Z,19.19
2018-06-10T06:03:21.041Z,19.19
2018-06-10T06:04:28.665Z,19.11
2018-06-10T06:05:36.747Z,19.15
2018-06-10T06:06:44.622Z,19.12
2018-06-10T06:07:52.702Z,19.27
2018-06-10T06:09:00.809Z,19.41
2018-06-10T06:10:09.397Z,19.56
2018-06-10T06:11:17.461Z,19.49
2018-06-10T06:12:24.949Z,19.74
2018-06-10T06:13:33.724Z,19.72
2018-06-10T06:14:41.490Z,19.81
2018-06-10T06:15:49.273Z,19.82
2018-06-10T06:16:57.245Z,20.00
2018-06-10T06:18:05.492Z,20.08
2018-06-10T06:19:13.396Z,20.15
2018-06-10T06:20:22.014Z,20.14
2018-06-10T06:21:30.087Z,20.17
2018-06-10T06:22:37.609Z,20.22
2018-06-10T06:23:45.683Z,20.24
2018-06-10T06:24:54.159Z,20.33
2018-06-10T06:26:01.922Z,20.40
2018-06-10T06:27:10.311Z,20.46
2018-06-10T06:28:17.955Z,20.36
2018-06-10T06:29:26.546Z,20.40
2018-06-10T06:30:34.103Z,20.52
2018-06-10T06:31:42.296Z,20.49
2018-06-10T06:32:50.334Z,20.53
2018-06-10T06:33:58.300Z,20.49
2018-06-10T06:35:06.395Z,20.44
2018-06-10T06:36:15.024Z,20.53
2018-06-10T06:37:22.540Z,20.52
2018-06-10T06:38:30.592Z,20.55
2018-06-10T06:39:39.044Z,20.55
2018-06-10T06:40:46.733Z,20.67
2018-06-10T06:41:54.794Z,20.68
2018-06-10T06:43:03.455Z,20.63
2018-06-10T06:44:11.299Z,20.67
2018-06-10T06:45:19.318Z,20.73
2018-06-10T06:46:27.116Z,20.68
2018-06-10T06:47:35.698Z,20.73
2018-06-10T06:48:43.216Z,20.73
2018-06-10T06:49:51.806Z,20.78
2018-06-10T06:51:00.003Z,20.86
2018-06-10T06:52:07.525Z,20.95
2018-06-10T06:53:15.514Z,21.05
2018-06-10T06:54:24.136Z,20.95
2018-06-10T06:55:31.707Z,21.04
2018-06-10T06:56:39.725Z,21.20
2018-06-10T06:57:47.842Z,21.30
2018-06-10T06:58:55.877Z,21.29
2018-06-10T07:00:03.941Z,21.37
2018-06-10T07:01:12.023Z,21.50
2018-06-10T07:02:20.088Z,21.65
2018-06-10T07:03:28.140Z,21.68
2018-06-10T07:04:36.227Z,21.77
2018-06-10T07:05:44.291Z,21.91
2018-06-10T07:06:53.298Z,21.91
2018-06-10T07:08:00.493Z,22.08
2018-06-10T07:09:08.605Z,22.21
2018-06-10T07:10:16.588Z,22.36
2018-06-10T07:11:24.856Z,22.47
2018-06-10T07:12:33.020Z,22.55
2018-06-10T07:13:40.798Z,22.56
2018-06-10T07:14:48.876Z,22.49
2018-06-10T07:15:57.235Z,22.62
2018-06-10T07:17:05.313Z,22.91
2018-06-10T07:18:13.367Z,23.26
2018-06-10T07:19:21.176Z,23.55
2018-06-10T07:20:29.232Z,23.69
2018-06-10T07:21:37.625Z,23.49
2018-06-10T07:22:46.443Z,23.47
2018-06-10T07:23:53.712Z,23.56
2018-06-10T07:25:01.819Z,23.58
2018-06-10T07:26:09.934Z,23.49
2018-06-10T07:27:17.800Z,23.64
2018-06-10T07:28:25.877Z,23.79
2018-06-10T07:29:34.121Z,24.04
2018-06-10T07:30:41.938Z,24.38
2018-06-10T07:31:49.987Z,24.96
2018-06-10T07:32:58.263Z,25.56
2018-06-10T07:34:06.368Z,25.95
2018-06-10T07:35:14.456Z,26.46
2018-06-10T07:36:22.380Z,27.04
2018-06-10T07:37:30.608Z,27.58
2018-06-10T07:38:38.439Z,27.93
2018-06-10T07:39:50.147Z,28.09
2018-06-10T07:40:57.049Z,28.50
2018-06-10T07:42:05.392Z,28.78
2018-06-10T07:43:13.399Z,29.03
2018-06-10T07:44:21.254Z,29.20
2018-06-10T07:45:29.354Z,29.44
2018-06-10T07:46:37.643Z,29.65
2018-06-10T07:47:45.783Z,29.74
2018-06-10T07:48:53.557Z,29.74
2018-06-10T07:50:01.659Z,29.68
2018-06-10T07:51:09.887Z,30.05
2018-06-10T07:52:17.959Z,30.10
2018-06-10T07:53:26.165Z,30.21
2018-06-10T07:54:34.907Z,30.11
2018-06-10T07:55:42.100Z,30.23
2018-06-10T07:56:50.581Z,30.63
2018-06-10T07:57:58.259Z,30.77
2018-06-10T07:59:06.913Z,30.78
2018-06-10T08:00:14.438Z,30.98
2018-06-10T08:01:22.840Z,31.05
2018-06-10T08:02:30.589Z,31.04
2018-06-10T08:03:38.907Z,31.23
2018-06-10T08:04:46.954Z,31.47
2018-06-10T08:05:55.073Z,31.45
2018-06-10T08:07:03.082Z,31.47
2018-06-10T08:08:11.298Z,31.45
2018-06-10T08:09:21.812Z,31.32
2018-06-10T08:10:27.290Z,30.96
2018-06-10T08:11:35.306Z,30.16
2018-06-10T08:12:43.307Z,29.90
2018-06-10T08:13:51.363Z,29.59
2018-06-10T08:14:59.552Z,29.73
2018-06-10T08:16:07.755Z,29.58
2018-06-10T08:17:15.612Z,29.80
2018-06-10T08:18:23.711Z,30.03
2018-06-10T08:19:31.788Z,30.20
2018-06-10T08:20:39.887Z,30.58
2018-06-10T08:21:47.955Z,30.81
2018-06-10T08:22:56.031Z,30.93
2018-06-10T08:24:04.180Z,30.89
2018-06-10T08:25:12.191Z,30.91
2018-06-10T08:26:20.284Z,30.98
2018-06-10T08:27:28.676Z,31.29
2018-06-10T08:28:36.667Z,31.55
2018-06-10T08:29:44.525Z,31.55
2018-06-10T08:30:52.989Z,31.63
2018-06-10T08:32:00.820Z,31.45
2018-06-10T08:33:08.803Z,31.29
2018-06-10T08:34:16.880Z,31.33
2018-06-10T08:35:25.028Z,30.92
2018-06-10T08:36:33.096Z,30.35
2018-06-10T08:37:41.170Z,30.52
2018-06-10T08:38:49.567Z,30.26
2018-06-10T08:39:57.300Z,29.83
2018-06-10T08:41:05.501Z,29.95
2018-06-10T08:42:13.812Z,30.24
2018-06-10T08:43:21.551Z,30.46
2018-06-10T08:44:29.640Z,30.69
2018-06-10T08:45:37.722Z,30.38
2018-06-10T08:46:45.831Z,30.11
2018-06-10T08:47:54.176Z,30.35
2018-06-10T08:49:02.311Z,30.44
2018-06-10T08:50:10.076Z,30.65
2018-06-10T08:51:18.161Z,30.89
2018-06-10T08:52:26.635Z,30.83
2018-06-10T08:53:34.311Z,31.04
2018-06-10T08:54:42.638Z,31.23
2018-06-10T08:55:51.096Z,31.17
2018-06-10T08:56:58.886Z,31.26
2018-06-10T08:58:06.626Z,31.22
2018-06-10T08:59:14.703Z,31.22
2018-06-10T09:00:22.810Z,30.93
2018-06-10T09:01:30.897Z,30.86
2018-06-10T09:02:39.025Z,30.86
2018-06-10T09:03:47.042Z,30.76
2018-06-10T09:04:55.102Z,30.89
2018-06-10T09:06:03.212Z,31.10
2018-06-10T09:07:11.308Z,31.26
2018-06-10T09:08:19.382Z,31.44
2018-06-10T09:09:27.476Z,31.47
2018-06-10T09:10:35.555Z,31.63
2018-06-10T09:11:43.670Z,31.59
2018-06-10T09:12:51.749Z,31.51
2018-06-10T09:13:59.821Z,31.20
2018-06-10T09:15:07.907Z,31.32
2018-06-10T09:16:15.988Z,31.35
2018-06-10T09:17:24.061Z,31.35
2018-06-10T09:18:32.164Z,31.50
2018-06-10T09:19:40.238Z,31.57
2018-06-10T09:20:48.318Z,31.23
2018-06-10T09:21:56.403Z,30.93
2018-06-10T09:23:04.482Z,30.31
2018-06-10T09:24:12.584Z,30.10
2018-06-10T09:25:20.663Z,29.71
2018-06-10T09:26:28.744Z,29.50
2018-06-10T09:27:36.838Z,29.02
2018-06-10T09:28:44.950Z,28.86
2018-06-10T09:29:52.979Z,28.70
2018-06-10T09:31:01.079Z,28.59
2018-06-10T09:32:09.159Z,28.52
2018-06-10T09:33:17.244Z,28.34
2018-06-10T09:34:25.295Z,28.08
2018-06-10T09:35:33.411Z,28.08
2018-06-10T09:36:41.496Z,27.78
2018-06-10T09:37:49.557Z,27.48
2018-06-10T09:38:57.647Z,27.29
2018-06-10T09:40:05.724Z,27.22
2018-06-10T09:41:13.831Z,27.07
2018-06-10T09:42:21.902Z,27.05
2018-06-10T09:43:29.963Z,27.00
2018-06-10T09:44:38.032Z,26.92
2018-06-10T09:45:46.120Z,26.88
2018-06-10T09:46:54.193Z,26.83
2018-06-10T09:48:02.277Z,26.89
2018-06-10T09:49:10.344Z,26.74
2018-06-10T09:50:18.442Z,26.81
2018-06-10T09:51:26.509Z,26.82
2018-06-10T09:52:34.564Z,26.88
2018-06-10T09:53:42.669Z,26.88
2018-06-10T09:54:50.738Z,26.97
2018-06-10T09:55:58.820Z,27.05
2018-06-10T09:57:06.885Z,27.10
2018-06-10T09:58:14.940Z,26.93
2018-06-10T09:59:23.046Z,27.03
2018-06-10T10:00:31.128Z,26.92
2018-06-10T10:01:39.189Z,26.79
2018-06-10T10:02:47.336Z,26.61
2018-06-10T10:03:55.340Z,26.55
2018-06-10T10:05:03.423Z,26.53
2018-06-10T10:06:11.488Z,26.66
2018-06-10T10:07:19.569Z,26.60
2018-06-10T10:08:27.654Z,26.70
2018-06-10T10:09:35.719Z,26.86
2018-06-10T10:10:43.822Z,26.81
2018-06-10T10:11:51.887Z,26.86
2018-06-10T10:12:59.968Z,26.91
2018-06-10T10:14:08.028Z,26.97
2018-06-10T10:15:16.095Z,27.07
2018-06-10T10:16:24.169Z,27.05
2018-06-10T10:17:32.249Z,27.05
2018-06-10T10:18:40.343Z,27.01
2018-06-10T10:19:48.523Z,27.04
2018-06-10T10:20:56.468Z,27.07
2018-06-10T10:22:04.544Z,26.89
2018-06-10T10:23:12.628Z,26.86
2018-06-10T10:24:20.709Z,26.91
2018-06-10T10:25:28.839Z,26.88
2018-06-10T10:26:36.845Z,27.01
2018-06-10T10:27:44.903Z,27.03
2018-06-10T10:28:53.026Z,27.23
2018-06-10T10:30:01.078Z,27.13
2018-06-10T10:31:09.154Z,27.15
2018-06-10T10:32:17.227Z,27.30
2018-06-10T10:33:25.307Z,27.43
2018-06-10T10:34:33.385Z,27.41
2018-06-10T10:35:41.460Z,27.44
2018-06-10T10:36:49.530Z,27.41
2018-06-10T10:37:57.617Z,27.26
2018-06-10T10:39:05.682Z,26.92
2018-06-10T10:40:13.750Z,26.85
2018-06-10T10:41:21.822Z,26.86
2018-06-10T10:42:29.912Z,26.98
2018-06-10T10:43:37.982Z,27.04
2018-06-10T10:44:46.061Z,27.07
2018-06-10T10:45:54.143Z,27.33
2018-06-10T10:47:02.213Z,27.38
2018-06-10T10:48:10.277Z,27.63
2018-06-10T10:49:18.349Z,27.76
2018-06-10T10:50:26.434Z,27.76
2018-06-10T10:51:34.492Z,27.75
2018-06-10T10:52:42.583Z,27.91
2018-06-10T10:53:50.665Z,28.12
2018-06-10T10:54:58.736Z,28.15
2018-06-10T10:56:06.835Z,28.20
2018-06-10T10:57:14.855Z,28.04
2018-06-10T10:58:22.968Z,28.01
2018-06-10T10:59:31.037Z,28.19
2018-06-10T11:00:39.130Z,28.23
2018-06-10T11:01:47.236Z,28.22
2018-06-10T11:02:55.252Z,28.31
2018-06-10T11:04:03.345Z,28.31
2018-06-10T11:05:11.411Z,28.37
2018-06-10T11:06:19.487Z,28.46
2018-06-10T11:07:27.570Z,28.45
2018-06-10T11:08:35.635Z,28.22
2018-06-10T11:09:43.709Z,28.37
2018-06-10T11:10:51.782Z,28.23
2018-06-10T11:11:59.873Z,28.34
2018-06-10T11:13:07.933Z,28.38
2018-06-10T11:14:16.008Z,28.28
2018-06-10T11:15:24.088Z,28.25
2018-06-10T11:16:32.170Z,28.30
2018-06-10T11:17:40.248Z,28.38
2018-06-10T11:18:48.327Z,28.65
2018-06-10T11:19:56.389Z,28.84
2018-06-10T11:21:04.486Z,28.86
2018-06-10T11:22:12.540Z,28.87
2018-06-10T11:23:20.635Z,29.10
2018-06-10T11:24:28.703Z,29.00
2018-06-10T11:25:36.775Z,29.21
2018-06-10T11:26:44.824Z,29.07
2018-06-10T11:27:52.942Z,29.10
2018-06-10T11:29:01.016Z,29.24
2018-06-10T11:30:09.081Z,29.25
2018-06-10T11:31:17.158Z,29.34
2018-06-10T11:32:25.205Z,29.32
2018-06-10T11:33:33.322Z,29.22
2018-06-10T11:34:41.397Z,29.37
2018-06-10T11:35:49.464Z,29.46
2018-06-10T11:36:57.533Z,29.55
2018-06-10T11:38:05.611Z,29.06
2018-06-10T11:39:13.690Z,28.56
2018-06-10T11:40:21.771Z,28.27
2018-06-10T11:41:29.848Z,27.78
2018-06-10T11:42:37.917Z,27.48
2018-06-10T11:43:46.004Z,27.30
2018-06-10T11:44:54.090Z,27.29
2018-06-10T11:46:02.166Z,27.26
2018-06-10T11:47:11.642Z,27.04
2018-06-10T11:48:18.301Z,27.01
2018-06-10T11:49:26.379Z,26.88
2018-06-10T11:50:34.470Z,26.71
2018-06-10T11:51:42.555Z,26.61
2018-06-10T11:52:50.619Z,26.51
2018-06-10T11:53:58.693Z,26.34
2018-06-10T11:55:06.772Z,26.34
2018-06-10T11:56:14.826Z,26.15
2018-06-10T11:57:22.915Z,26.04
2018-06-10T11:58:31.001Z,25.99
2018-06-10T11:59:39.058Z,25.76
2018-06-10T12:00:47.133Z,25.52
2018-06-10T12:01:55.213Z,25.09
2018-06-10T12:03:03.287Z,24.19
2018-06-10T12:04:11.377Z,23.40
2018-06-10T12:05:19.507Z,22.67
2018-06-10T12:06:28.122Z,21.99
2018-06-10T12:07:35.576Z,21.17
2018-06-10T12:08:43.678Z,20.32
2018-06-10T12:09:51.738Z,19.67
2018-06-10T12:11:00.945Z,19.30
2018-06-10T12:12:07.964Z,18.81
2018-06-10T12:13:16.276Z,18.55
2018-06-10T12:14:24.260Z,18.42
2018-06-10T12:15:32.111Z,18.41
2018-06-10T12:16:40.235Z,18.48
2018-06-10T12:17:48.537Z,18.66
2018-06-10T12:18:56.327Z,18.70
2018-06-10T12:20:04.392Z,18.34
2018-06-10T12:21:14.325Z,18.33
2018-06-10T12:22:20.530Z,18.18
2018-06-10T12:23:28.620Z,18.21
2018-06-10T12:24:36.676Z,18.26
2018-06-10T12:25:44.796Z,18.24
2018-06-10T12:26:52.819Z,18.33
2018-06-10T12:28:00.893Z,18.45
2018-06-10T12:29:08.962Z,18.57
2018-06-10T12:30:17.021Z,18.53
2018-06-10T12:31:25.360Z,18.53
2018-06-10T12:32:33.536Z,18.51
2018-06-10T12:33:41.239Z,18.61
2018-06-10T12:34:49.784Z,18.73
2018-06-10T12:35:57.615Z,18.81
2018-06-10T12:37:05.554Z,18.74
2018-06-10T12:38:13.513Z,18.82
2018-06-10T12:39:21.583Z,18.85
2018-06-10T12:40:31.779Z,18.91
2018-06-10T12:41:37.709Z,18.98
2018-06-10T12:42:45.780Z,19.08
2018-06-10T12:43:54.066Z,19.12
2018-06-10T12:45:02.193Z,19.24
2018-06-10T12:46:09.983Z,19.26
2018-06-10T12:47:19.923Z,19.27
2018-06-10T12:48:26.415Z,19.23
2018-06-10T12:49:34.206Z,19.20
2018-06-10T12:50:42.265Z,19.56
2018-06-10T12:51:50.498Z,19.78
2018-06-10T12:52:58.413Z,19.79
2018-06-10T12:54:06.485Z,19.93
2018-06-10T12:55:14.529Z,20.17
2018-06-10T12:56:22.683Z,20.26
2018-06-10T12:57:30.709Z,20.37
2018-06-10T12:58:38.774Z,20.53
2018-06-10T12:59:46.834Z,20.78
2018-06-10T13:00:54.907Z,20.90
2018-06-10T13:02:02.985Z,20.95
2018-06-10T13:03:11.056Z,-40.00
2018-06-10T13:04:19.203Z,-40.00
2018-06-10T13:05:27.212Z,-40.00
2018-06-10T13:06:35.253Z,-40.00
2018-06-10T13:07:43.357Z,-40.00
2018-06-10T13:08:51.418Z,-40.00
2018-06-10T13:09:59.533Z,-40.00
2018-06-10T13:11:07.565Z,-40.00
2018-06-10T13:12:15.637Z,-40.00
2018-06-10T13:13:23.700Z,-40.00
2018-06-10T13:14:31.786Z,-40.00
2018-06-10T13:15:39.840Z,-40.00
2018-06-10T13:16:47.919Z,-40.00
2018-06-10T13:17:56.002Z,-40.00
2018-06-10T13:19:04.050Z,-40.00
2018-06-10T13:20:12.123Z,-40.00
2018-06-10T13:21:20.230Z,-40.00
2018-06-10T13:22:28.265Z,-40.00
2018-06-10T13:23:36.333Z,-40.00
2018-06-10T13:24:44.405Z,-40.00
2018-06-10T13:25:52.461Z,-40.00
2018-06-10T13:27:00.552Z,-40.00
2018-06-10T13:28:08.624Z,-40.00
2018-06-10T13:29:16.684Z,-40.00
2018-06-10T13:30:24.745Z,-40.00
2018-06-10T13:31:32.853Z,-40.00
2018-06-10T13:32:40.906Z,-40.00
2018-06-10T13:33:49.059Z,-40.00
2018-06-10T13:34:57.078Z,-40.00
2018-06-10T13:36:05.096Z,-40.00
2018-06-10T13:37:13.191Z,-40.00
2018-06-10T13:38:21.266Z,-40.00
2018-06-10T13:39:29.339Z,-40.00
2018-06-10T13:40:37.483Z,-40.00
2018-06-10T13:41:45.818Z,-40.00
2018-06-10T13:42:53.543Z,-40.00
2018-06-10T13:44:01.617Z,-40.00
2018-06-10T13:45:09.690Z,-40.00
2018-06-10T13:46:17.756Z,-40.00
2018-06-10T13:47:25.836Z,-40.00
2018-06-10T13:48:33.916Z,-40.00
2018-06-10T13:49:41.980Z,-40.00
2018-06-10T13:50:50.040Z,-40.00
2018-06-10T13:51:58.119Z,-40.00
2018-06-10T13:53:06.188Z,-40.00
2018-06-10T13:54:14.268Z,-40.00
2018-06-10T13:55:22.340Z,-40.00
2018-06-10T13:56:30.411Z,-40.00
2018-06-10T13:57:38.479Z,-40.00
2018-06-10T13:58:46.578Z,-40.00
2018-06-10T13:59:54.624Z,-40.00
2018-06-10T14:01:02.705Z,-40.00
2018-06-10T14:02:10.771Z,-40.00
2018-06-10T14:03:18.836Z,-40.00
2018-06-10T14:04:26.903Z,-40.00
2018-06-10T14:05:34.957Z,-40.00
2018-06-10T14:06:43.052Z,-40.00
2018-06-10T14:07:51.128Z,-40.00
2018-06-10T14:08:59.204Z,-40.00
2018-06-10T14:10:07.263Z,-40.00
2018-06-10T14:11:15.323Z,-40.00
2018-06-10T14:12:23.413Z,-40.00
2018-06-10T14:13:31.478Z,-40.00
2018-06-10T14:14:39.562Z,-40.00
2018-06-10T14:15:47.633Z,-40.00
2018-06-10T14:16:55.691Z,-40.00
2018-06-10T14:18:03.767Z,22.43
2018-06-10T14:19:11.878Z,22.31
2018-06-10T14:20:19.904Z,22.36
2018-06-10T14:21:27.987Z,22.28
2018-06-10T14:22:36.065Z,22.28
2018-06-10T14:23:44.114Z,22.10
2018-06-10T14:24:52.207Z,22.12
2018-06-10T14:26:00.273Z,22.01
2018-06-10T14:27:08.335Z,22.06
2018-06-10T14:28:16.405Z,22.06
2018-06-10T14:29:24.484Z,22.18
2018-06-10T14:30:32.559Z,22.30
2018-06-10T14:31:40.635Z,22.37
2018-06-10T14:32:48.704Z,22.37
2018-06-10T14:33:56.778Z,22.52
2018-06-10T14:35:04.820Z,22.59
2018-06-10T14:36:12.908Z,22.74
2018-06-10T14:37:20.973Z,22.81
2018-06-10T14:38:29.053Z,22.84
2018-06-10T14:39:37.147Z,23.08
2018-06-10T14:40:45.166Z,23.10
2018-06-10T14:41:53.263Z,23.06
2018-06-10T14:43:01.346Z,23.10
2018-06-10T14:44:09.412Z,22.99
2018-06-10T14:45:17.481Z,22.96
2018-06-10T14:46:25.547Z,22.84
2018-06-10T14:47:33.631Z,22.80
2018-06-10T14:48:41.720Z,22.99
2018-06-10T14:49:49.779Z,22.89
2018-06-10T14:50:57.856Z,22.84
2018-06-10T14:52:06.017Z,22.98
2018-06-10T14:53:13.990Z,22.91
2018-06-10T14:55:39.225Z,23.18
2018-06-10T14:56:49.302Z,23.29
2018-06-10T14:57:55.334Z,-40.00
2018-06-10T14:59:03.429Z,23.36
2018-06-10T15:00:11.516Z,23.48
2018-06-10T15:01:19.598Z,23.49
2018-06-10T15:02:27.658Z,23.59
2018-06-10T15:03:35.740Z,23.54
2018-06-10T15:04:43.801Z,23.64
2018-06-10T15:05:51.883Z,23.49
2018-06-10T15:06:59.945Z,23.37
2018-06-10T15:08:08.011Z,23.36
2018-06-10T15:09:16.095Z,23.36
2018-06-10T15:10:24.182Z,23.34
2018-06-10T15:11:32.244Z,23.34
2018-06-10T15:12:40.320Z,23.45
2018-06-10T15:13:48.385Z,23.21
2018-06-10T15:14:56.467Z,23.20
2018-06-10T15:16:04.516Z,23.08
2018-06-10T15:17:12.605Z,23.07
2018-06-10T15:18:20.678Z,23.02
2018-06-10T15:19:28.753Z,23.13
2018-06-10T15:20:36.823Z,23.20
2018-06-10T15:21:44.875Z,23.16
2018-06-10T15:22:52.987Z,23.23
2018-06-10T15:24:01.039Z,23.39
2018-06-10T15:25:09.115Z,23.45
2018-06-10T15:26:17.196Z,23.56
2018-06-10T15:27:25.233Z,23.52
2018-06-10T15:28:34.115Z,23.62
2018-06-10T15:29:41.470Z,23.51
2018-06-10T15:30:49.691Z,23.48
2018-06-10T15:31:58.230Z,23.55
2018-06-10T15:33:07.876Z,23.49
2018-06-10T15:34:13.717Z,23.44
2018-06-10T15:35:21.790Z,23.33
2018-06-10T15:36:29.842Z,23.18
2018-06-10T15:37:37.979Z,23.01
2018-06-10T15:38:45.993Z,22.92
2018-06-10T15:39:54.081Z,22.86
2018-06-10T15:41:02.145Z,22.86
2018-06-10T15:42:10.221Z,22.83
2018-06-10T15:43:18.311Z,22.80
2018-06-10T15:44:26.362Z,22.67
2018-06-10T15:45:34.427Z,22.65
2018-06-10T15:46:42.508Z,22.67
2018-06-10T15:47:50.831Z,22.71
2018-06-10T15:48:58.676Z,22.76
2018-06-10T15:50:06.753Z,22.76
2018-06-10T15:51:14.840Z,22.78
2018-06-10T15:52:22.870Z,22.78
2018-06-10T15:53:33.562Z,22.81
2018-06-10T15:54:41.635Z,22.77
2018-06-10T15:55:49.708Z,22.89
2018-06-10T15:56:58.019Z,22.84
2018-06-10T15:58:06.099Z,22.95
2018-06-10T15:59:14.114Z,23.06
2018-06-10T16:00:21.995Z,23.11
2018-06-10T16:01:30.081Z,23.11
2018-06-10T16:02:38.131Z,23.10
2018-06-10T16:03:46.215Z,23.13
2018-06-10T16:04:54.304Z,23.29
2018-06-10T16:06:02.362Z,23.34
2018-06-10T16:07:10.435Z,23.36
2018-06-10T16:08:18.510Z,23.28
2018-06-10T16:09:26.743Z,23.29
2018-06-10T16:10:34.633Z,23.28
2018-06-10T16:11:42.723Z,23.33
2018-06-10T16:12:50.803Z,23.33
2018-06-10T16:13:58.891Z,23.36
2018-06-10T16:15:06.947Z,23.37
2018-06-10T16:16:15.526Z,23.28
2018-06-10T16:17:23.094Z,23.42
2018-06-10T16:18:31.153Z,23.45
2018-06-10T16:19:39.232Z,23.56
2018-06-10T16:20:47.386Z,23.55
2018-06-10T16:21:55.364Z,23.70
2018-06-10T16:23:03.470Z,23.86
2018-06-10T16:24:11.530Z,23.89
2018-06-10T16:25:19.598Z,23.96
2018-06-10T16:26:27.685Z,23.99
2018-06-10T16:27:35.746Z,24.01
2018-06-10T16:28:43.829Z,23.88
2018-06-10T16:29:51.890Z,23.76
2018-06-10T16:30:59.968Z,23.67
2018-06-10T16:32:08.039Z,23.66
2018-06-10T16:33:16.121Z,23.62
2018-06-10T16:34:24.200Z,23.66
2018-06-10T16:35:32.278Z,23.55
2018-06-10T16:36:40.325Z,23.42
2018-06-10T16:37:48.426Z,23.45
2018-06-10T16:38:56.483Z,23.40
2018-06-10T16:40:04.535Z,23.39
2018-06-10T16:41:12.623Z,23.32
2018-06-10T16:42:20.708Z,23.37
2018-06-10T16:43:28.787Z,23.36
2018-06-10T16:44:36.843Z,23.33
2018-06-10T16:45:44.889Z,23.33
2018-06-10T16:46:53.002Z,23.26
2018-06-10T16:48:01.064Z,23.37
2018-06-10T16:49:09.186Z,23.33
2018-06-10T16:50:17.218Z,23.21
2018-06-10T16:51:25.266Z,23.18
2018-06-10T16:52:33.775Z,23.28
2018-06-10T16:53:42.702Z,23.28
2018-06-10T16:54:49.568Z,23.32
2018-06-10T16:55:57.583Z,23.13
2018-06-10T16:57:05.636Z,23.34
2018-06-10T16:58:13.718Z,23.37
2018-06-10T16:59:21.787Z,23.23
2018-06-10T17:00:29.870Z,23.21
2018-06-10T17:01:37.968Z,23.23
2018-06-10T17:02:46.008Z,23.18
2018-06-10T17:03:54.084Z,23.16
2018-06-10T17:05:02.153Z,23.13
2018-06-10T17:06:10.225Z,23.11
2018-06-10T17:07:20.378Z,23.04
2018-06-10T17:08:26.380Z,23.04
2018-06-10T17:09:34.438Z,22.96
2018-06-10T17:10:42.522Z,22.95
2018-06-10T17:11:50.612Z,22.89
2018-06-10T17:12:58.660Z,22.91
2018-06-10T17:14:06.729Z,23.02
2018-06-10T17:15:14.788Z,22.99
2018-06-10T17:16:22.881Z,22.95
2018-06-10T17:17:30.962Z,22.74
2018-06-10T17:21:12.333Z,22.53
2018-06-10T17:22:20.409Z,22.47
2018-06-10T17:23:28.460Z,22.37
2018-06-10T17:24:36.954Z,22.41
2018-06-10T17:25:44.611Z,22.28
2018-06-10T17:26:52.692Z,22.18
2018-06-10T17:28:00.764Z,22.10
2018-06-10T17:29:08.842Z,22.04
2018-06-10T17:30:16.916Z,22.01
2018-06-10T17:31:24.942Z,21.89
2018-06-10T17:32:33.059Z,21.70
2018-06-10T17:33:41.439Z,21.77
2018-06-10T17:34:49.195Z,21.66
2018-06-10T17:35:57.779Z,21.72
2018-06-10T17:37:05.433Z,21.60
2018-06-10T17:38:13.412Z,21.63
2018-06-10T17:39:21.470Z,21.48
2018-06-10T17:40:29.607Z,21.51
2018-06-10T17:41:37.615Z,21.53
2018-06-10T17:42:45.858Z,21.56
2018-06-10T17:43:54.026Z,21.45
2018-06-10T17:45:01.835Z,21.47
2018-06-10T17:46:09.906Z,21.44
2018-06-10T17:47:17.981Z,21.32
2018-06-10T17:48:26.057Z,21.30
2018-06-10T17:49:34.131Z,21.28
2018-06-10T17:50:42.205Z,21.26
2018-06-10T17:51:50.272Z,21.32
2018-06-10T17:52:58.677Z,21.19
2018-06-10T17:54:06.412Z,21.26
2018-06-10T17:55:14.461Z,21.23
2018-06-10T17:56:22.554Z,21.30
2018-06-10T17:57:30.629Z,21.25
2018-06-10T17:58:38.697Z,21.22
2018-06-10T17:59:46.772Z,21.29
2018-06-10T18:00:54.795Z,21.22
2018-06-10T18:02:02.900Z,21.14
2018-06-10T18:03:10.975Z,21.15
2018-06-10T18:04:19.027Z,21.08
2018-06-10T18:05:27.116Z,21.10
2018-06-10T18:06:35.170Z,20.96
2018-06-10T18:07:43.253Z,20.95
2018-06-10T18:08:51.321Z,20.93
2018-06-10T18:09:59.389Z,20.92
2018-06-10T18:11:07.454Z,20.85
2018-06-10T18:12:15.526Z,20.82
2018-06-10T18:13:23.602Z,20.80
2018-06-10T18:14:31.683Z,20.77
2018-06-10T18:15:39.745Z,20.70
2018-06-10T18:16:47.826Z,20.73
2018-06-10T18:17:55.897Z,20.74
2018-06-10T18:19:03.961Z,20.67
2018-06-10T18:20:12.039Z,20.59
2018-06-10T18:21:20.101Z,20.59
2018-06-10T18:22:28.170Z,20.49
2018-06-10T18:23:36.236Z,20.52
2018-06-10T18:24:44.324Z,20.50
2018-06-10T18:25:52.392Z,20.48
2018-06-10T18:27:00.445Z,20.32
2018-06-10T18:28:08.528Z,20.37
2018-06-10T18:29:16.595Z,20.27
2018-06-10T18:30:24.654Z,20.30
2018-06-10T18:31:32.737Z,20.26
2018-06-10T18:32:40.819Z,20.15
2018-06-10T18:33:48.882Z,20.24
2018-06-10T18:34:56.942Z,20.19
2018-06-10T18:36:05.005Z,20.14
2018-06-10T18:37:13.088Z,20.10
2018-06-10T18:38:21.158Z,20.07
2018-06-10T18:39:29.235Z,20.14
2018-06-10T18:40:37.306Z,20.03
2018-06-10T18:41:45.368Z,19.99
2018-06-10T18:42:53.433Z,19.93
2018-06-10T18:44:01.521Z,19.89
2018-06-10T18:45:09.578Z,19.90
2018-06-10T18:46:17.637Z,19.87
2018-06-10T18:47:25.730Z,19.84
2018-06-10T18:48:33.799Z,19.72
2018-06-10T18:49:41.854Z,19.74
2018-06-10T18:50:49.935Z,19.71
2018-06-10T18:51:58.007Z,19.67
2018-06-10T18:53:06.073Z,19.70
2018-06-10T18:54:14.150Z,19.64
2018-06-10T18:55:22.209Z,19.57
2018-06-10T18:56:30.284Z,19.57
2018-06-10T18:57:38.359Z,19.55
2018-06-10T18:58:46.421Z,19.47
2018-06-10T18:59:54.485Z,19.39
2018-06-10T19:01:02.601Z,19.34
2018-06-10T19:02:10.622Z,19.34
2018-06-10T19:03:18.722Z,19.24
2018-06-10T19:04:26.787Z,19.20
2018-06-10T19:05:34.828Z,19.15
2018-06-10T19:06:42.903Z,19.12
2018-06-10T19:07:50.977Z,19.08
2018-06-10T19:08:59.044Z,18.94
2018-06-10T19:10:07.127Z,18.89
2018-06-10T19:11:15.173Z,18.83
2018-06-10T19:12:23.260Z,18.79
2018-06-10T19:13:31.313Z,18.81
2018-06-10T19:14:39.396Z,18.79
2018-06-10T19:15:47.557Z,18.68
2018-06-10T19:16:55.526Z,18.63
2018-06-10T19:18:03.609Z,18.55
2018-06-10T19:19:11.672Z,18.51
2018-06-10T19:20:19.744Z,18.52
2018-06-10T19:21:27.808Z,18.43
2018-06-10T19:22:35.876Z,18.48
2018-06-10T19:23:43.940Z,18.37
2018-06-10T19:24:52.015Z,18.33
2018-06-10T19:26:00.085Z,18.18
2018-06-10T19:27:08.165Z,18.24
2018-06-10T19:28:16.223Z,18.18
2018-06-10T19:29:24.314Z,18.21
2018-06-10T19:30:32.372Z,18.12
2018-06-10T19:31:40.442Z,18.03
2018-06-10T19:32:48.553Z,18.06
2018-06-10T19:33:56.647Z,17.97
2018-06-10T19:35:04.627Z,17.98
2018-06-10T19:36:12.709Z,17.97
2018-06-10T19:37:20.818Z,17.95
2018-06-10T19:38:28.847Z,17.84
2018-06-10T19:39:36.917Z,17.90
2018-06-10T19:40:44.966Z,17.75
2018-06-10T19:41:53.058Z,17.76
2018-06-10T19:43:01.116Z,17.80
2018-06-10T19:44:09.196Z,17.75
2018-06-10T19:45:17.258Z,17.69
2018-06-10T19:46:25.307Z,17.57
2018-06-10T19:47:33.669Z,17.57
2018-06-10T19:48:41.450Z,17.57
2018-06-10T19:49:49.531Z,17.38
2018-06-10T19:50:57.596Z,17.54
2018-06-10T19:52:05.660Z,17.49
2018-06-10T19:53:13.744Z,17.52
2018-06-10T19:54:21.809Z,17.46
2018-06-10T19:55:29.875Z,17.35
2018-06-10T19:56:37.940Z,17.35
2018-06-10T19:57:46.066Z,17.39
2018-06-10T19:58:54.071Z,17.41
2018-06-10T20:00:02.149Z,17.35